Time;durP1;ratioP1;P1;durP2;ratioP2;P2;SDS_P1;SDS_P2;PMS_P1;PMS_P2;Temp;Humidity;BMP_temperature;BMP_pressure;BME280_temperature;BME280_humidity;BME280_pressure;Samples;Min_cycle;Max_cycle;Signal;HPM_P1;HPM_P2
2022/07/13 00:02:06;;;;;;;31.58;24.80;;;19.70;1.00;;;;;;5025449;28;20599;-82
2022/07/13 00:04:31;;;;;;;29.48;22.45;;;19.70;1.00;;;;;;5022273;28;20037;-82
2022/07/13 00:06:57;;;;;;;29.95;24.42;;;19.80;1.00;;;;;;5029260;28;20026;-82
2022/07/13 00:09:22;;;;;;;30.92;24.92;;;19.70;1.00;;;;;;5028689;28;20116;-81
2022/07/13 00:11:48;;;;;;;31.58;24.45;;;19.70;1.00;;;;;;5022191;28;20030;-81
2022/07/13 00:14:13;;;;;;;31.52;24.38;;;19.70;1.00;;;;;;5024858;28;20041;-81
2022/07/13 00:16:39;;;;;;;30.08;22.27;;;19.70;1.00;;;;;;5030170;28;20024;-81
2022/07/13 00:19:05;;;;;;;29.15;23.73;;;19.70;1.00;;;;;;5025528;28;20068;-82
2022/07/13 00:21:30;;;;;;;30.48;24.92;;;19.70;1.00;;;;;;5021963;28;20062;-81
2022/07/13 00:23:56;;;;;;;31.67;23.83;;;19.70;1.00;;;;;;5028766;28;20036;-81
2022/07/13 00:26:21;;;;;;;29.20;24.50;;;19.70;1.00;;;;;;5028998;28;20083;-81
2022/07/13 00:28:47;;;;;;;34.20;22.70;;;19.70;1.00;;;;;;5021476;28;20037;-81
2022/07/13 00:31:12;;;;;;;29.75;23.35;;;19.80;1.00;;;;;;5031950;28;20017;-82
2022/07/13 00:33:38;;;;;;;29.70;22.73;;;19.70;1.00;;;;;;5022496;28;20030;-81
2022/07/13 00:36:04;;;;;;;27.60;22.77;;;19.60;1.00;;;;;;5029938;28;20026;-81
2022/07/13 00:38:29;;;;;;;28.80;22.58;;;19.70;1.00;;;;;;5026928;28;20045;-82
2022/07/13 00:40:55;;;;;;;29.27;21.55;;;19.70;1.00;;;;;;5022029;28;20022;-82
2022/07/13 00:43:20;;;;;;;29.05;22.60;;;19.50;1.00;;;;;;5026544;28;20103;-81
2022/07/13 00:45:46;;;;;;;26.17;21.00;;;19.50;1.00;;;;;;5029828;28;20097;-81
2022/07/13 00:48:12;;;;;;;25.70;19.08;;;19.60;1.00;;;;;;5015662;28;20050;-81
2022/07/13 00:50:38;;;;;;;24.23;18.13;;;19.60;1.00;;;;;;5028905;28;20032;-82
2022/07/13 00:53:05;;;;;;;22.38;18.38;;;19.60;1.00;;;;;;5021755;28;20022;-81
2022/07/13 00:55:32;;;;;;;22.77;17.50;;;19.60;1.00;;;;;;5024063;28;20025;-81
2022/07/13 00:57:59;;;;;;;22.05;17.17;;;19.60;1.00;;;;;;5029816;28;20621;-82
2022/07/13 01:00:24;;;;;;;23.25;16.40;;;19.70;1.00;;;;;;5024946;28;20056;-81
2022/07/13 01:02:50;;;;;;;21.83;15.63;;;19.60;1.00;;;;;;5021028;28;20478;-82
2022/07/13 01:05:15;;;;;;;16.48;13.70;;;19.60;1.00;;;;;;5027748;28;20029;-82
2022/07/13 01:07:42;;;;;;;20.48;15.38;;;19.60;1.00;;;;;;5029004;28;20049;-81
2022/07/13 01:10:10;;;;;;;16.90;13.90;;;19.60;1.00;;;;;;5021415;28;20021;-81
2022/07/13 01:12:37;;;;;;;19.83;14.38;;;19.60;1.00;;;;;;5021364;28;20041;-81
2022/07/13 01:15:04;;;;;;;19.42;13.35;;;19.60;1.00;;;;;;5028865;28;20488;-82
2022/07/13 01:17:32;;;;;;;20.58;13.90;;;19.70;1.00;;;;;;5025454;28;20105;-81
2022/07/13 01:19:58;;;;;;;17.80;13.55;;;19.60;1.00;;;;;;5018532;28;20064;-81
2022/07/13 01:22:33;;;;;;;14.77;11.98;;;19.70;1.00;;;;;;5023648;28;20021;-82
2022/07/13 01:24:59;;;;;;;15.90;11.30;;;19.70;1.00;;;;;;5033272;28;20060;-81
2022/07/13 01:27:25;;;;;;;17.02;12.50;;;19.70;1.00;;;;;;5022944;28;20017;-81
2022/07/13 01:29:51;;;;;;;13.27;11.00;;;19.70;1.00;;;;;;5021065;28;20018;-82
2022/07/13 01:32:17;;;;;;;13.35;10.20;;;19.70;1.00;;;;;;5024817;28;20021;-81
2022/07/13 01:34:42;;;;;;;13.23;10.60;;;19.70;1.00;;;;;;5022721;28;20029;-81
2022/07/13 01:37:09;;;;;;;14.40;10.75;;;19.70;1.00;;;;;;5020617;28;20033;-80
2022/07/13 01:39:35;;;;;;;13.00;9.77;;;19.70;1.00;;;;;;5020600;28;20053;-82
2022/07/13 01:42:01;;;;;;;13.43;9.93;;;19.80;1.00;;;;;;5034617;28;20370;-81
2022/07/13 01:44:28;;;;;;;11.30;9.40;;;19.70;1.00;;;;;;5020682;28;20025;-81
2022/07/13 01:46:54;;;;;;;13.52;9.80;;;19.80;1.00;;;;;;5024767;28;20388;-81
2022/07/13 01:49:20;;;;;;;13.90;10.13;;;19.80;1.00;;;;;;5027225;28;20543;-81
2022/07/13 01:51:45;;;;;;;11.88;9.63;;;19.80;1.00;;;;;;5023177;28;20029;-81
2022/07/13 01:54:11;;;;;;;11.13;9.05;;;19.80;1.00;;;;;;5020306;28;20037;-81
2022/07/13 01:56:37;;;;;;;11.55;7.85;;;19.80;1.00;;;;;;5028188;28;20092;-81
2022/07/13 01:59:03;;;;;;;10.13;8.75;;;19.70;1.00;;;;;;5014076;28;20038;-82
2022/07/13 02:01:28;;;;;;;11.82;9.63;;;19.70;1.00;;;;;;5014236;28;20025;-81
2022/07/13 02:03:55;;;;;;;11.13;8.60;;;19.70;1.00;;;;;;5017506;28;20385;-81
2022/07/13 02:06:27;;;;;;;12.65;8.75;;;19.70;1.00;;;;;;5028174;28;20018;-81
2022/07/13 02:08:52;;;;;;;10.93;8.60;;;19.70;1.00;;;;;;5016257;28;20036;-81
2022/07/13 02:11:18;;;;;;;10.45;8.80;;;19.70;1.00;;;;;;5024381;28;20022;-81
2022/07/13 02:13:45;;;;;;;12.68;9.15;;;19.70;1.00;;;;;;5027902;28;20551;-81
2022/07/13 02:16:12;;;;;;;14.35;9.00;;;19.60;1.00;;;;;;5014246;28;20098;-81
2022/07/13 02:18:37;;;;;;;12.10;9.15;;;19.60;1.00;;;;;;5012581;28;20021;-81
2022/07/13 02:21:03;;;;;;;14.48;9.68;;;19.60;1.00;;;;;;5028059;28;20017;-81
2022/07/13 02:23:29;;;;;;;11.65;9.40;;;19.60;1.00;;;;;;5025737;28;20030;-81
2022/07/13 02:25:54;;;;;;;13.15;9.68;;;19.60;1.00;;;;;;5019453;28;20025;-81
2022/07/13 02:28:20;;;;;;;13.05;9.30;;;19.60;1.00;;;;;;5024523;28;20023;-82
2022/07/13 02:30:45;;;;;;;12.35;9.68;;;19.70;1.00;;;;;;5025830;28;20030;-81
2022/07/13 02:33:14;;;;;;;12.40;9.00;;;19.60;1.00;;;;;;5026578;28;20026;-81
2022/07/13 02:35:40;;;;;;;13.93;9.40;;;19.60;1.00;;;;;;5027155;28;20075;-81
2022/07/13 02:38:05;;;;;;;12.48;9.43;;;19.50;1.00;;;;;;5018642;28;20025;-82
2022/07/13 02:40:31;;;;;;;12.23;10.13;;;19.50;1.00;;;;;;5021996;28;20053;-82
2022/07/13 02:42:56;;;;;;;13.18;9.52;;;19.50;1.00;;;;;;5027805;28;20027;-81
2022/07/13 02:45:22;;;;;;;13.05;9.57;;;19.50;1.00;;;;;;5023011;28;20056;-81
2022/07/13 02:47:48;;;;;;;13.25;9.30;;;19.50;1.00;;;;;;5019589;28;20050;-81
2022/07/13 02:50:13;;;;;;;12.80;9.50;;;19.50;1.00;;;;;;5026648;28;20026;-81
2022/07/13 02:52:39;;;;;;;11.55;8.50;;;19.50;1.00;;;;;;5026637;28;20076;-81
2022/07/13 02:55:05;;;;;;;11.52;8.48;;;19.50;1.00;;;;;;5035040;28;20056;-80
2022/07/13 02:57:31;;;;;;;13.43;8.95;;;19.50;1.00;;;;;;5020979;28;20485;-82
2022/07/13 02:59:57;;;;;;;11.63;9.07;;;19.50;1.00;;;;;;5016835;28;20098;-81
2022/07/13 03:02:23;;;;;;;12.80;9.10;;;19.50;1.00;;;;;;5024439;28;20024;-81
2022/07/13 03:04:49;;;;;;;13.63;9.13;;;19.50;1.00;;;;;;5027521;28;20033;-82
2022/07/13 03:07:15;;;;;;;11.73;8.90;;;19.40;1.00;;;;;;5020660;28;20032;-82
2022/07/13 03:09:43;;;;;;;12.02;8.85;;;19.40;1.00;;;;;;5019873;28;20497;-81
2022/07/13 03:12:09;;;;;;;12.68;8.82;;;19.40;1.00;;;;;;5027676;28;20026;-81
2022/07/13 03:14:34;;;;;;;12.35;8.90;;;19.60;1.00;;;;;;5023968;28;20036;-81
2022/07/13 03:17:00;;;;;;;12.50;9.15;;;19.40;1.00;;;;;;5019465;28;20068;-81
2022/07/13 03:19:26;;;;;;;14.00;9.85;;;19.40;1.00;;;;;;5025066;28;20497;-82
2022/07/13 03:21:51;;;;;;;12.55;8.98;;;19.40;1.00;;;;;;5027549;28;20501;-82
2022/07/13 03:24:17;;;;;;;11.80;9.13;;;19.40;1.00;;;;;;5013523;28;20022;-81
2022/07/13 03:26:42;;;;;;;12.23;9.00;;;19.40;1.00;;;;;;5012308;28;20030;-82
2022/07/13 03:29:09;;;;;;;12.05;8.77;;;19.30;1.00;;;;;;5027361;28;20022;-81
2022/07/13 03:31:35;;;;;;;11.07;8.82;;;19.50;1.00;;;;;;5024008;28;20103;-81
2022/07/13 03:34:00;;;;;;;12.35;9.30;;;19.40;1.00;;;;;;5019422;28;20025;-81
2022/07/13 03:36:26;;;;;;;11.50;7.70;;;19.30;1.00;;;;;;5025450;28;20022;-81
2022/07/13 03:38:51;;;;;;;10.80;8.65;;;19.40;1.00;;;;;;5030500;28;20053;-81
2022/07/13 03:41:17;;;;;;;11.20;8.20;;;19.40;1.00;;;;;;5023258;28;20033;-81
2022/07/13 03:43:43;;;;;;;12.70;8.32;;;19.40;1.00;;;;;;5024048;28;20042;-81
2022/07/13 03:46:11;;;;;;;12.98;8.40;;;19.60;1.00;;;;;;5029130;28;20067;-81
2022/07/13 03:48:37;;;;;;;9.80;8.00;;;19.40;1.00;;;;;;5015628;28;20030;-81
2022/07/13 03:51:03;;;;;;;10.45;7.55;;;19.40;1.00;;;;;;5019218;28;20024;-81
2022/07/13 03:53:28;;;;;;;11.02;8.18;;;19.40;1.00;;;;;;5027595;28;20137;-81
2022/07/13 03:55:54;;;;;;;9.30;6.75;;;19.50;1.00;;;;;;5030202;28;20049;-81
2022/07/13 03:58:19;;;;;;;10.98;7.68;;;19.50;1.00;;;;;;5023417;28;20029;-81
2022/07/13 04:00:46;;;;;;;10.98;7.18;;;19.50;1.00;;;;;;5022269;28;20088;-81
2022/07/13 04:03:11;;;;;;;11.23;7.90;;;19.40;1.00;;;;;;5035421;28;20025;-81
2022/07/13 04:05:37;;;;;;;8.93;6.85;;;19.50;1.00;;;;;;5024453;28;20022;-81
2022/07/13 04:08:03;;;;;;;10.80;6.93;;;19.50;1.00;;;;;;5031649;28;20021;-82
2022/07/13 04:10:29;;;;;;;9.82;7.00;;;19.50;1.00;;;;;;5021814;28;20056;-82
2022/07/13 04:12:54;;;;;;;11.32;6.90;;;19.50;1.00;;;;;;5025295;28;20057;-81
2022/07/13 04:15:22;;;;;;;9.68;6.88;;;19.50;1.00;;;;;;5029889;28;20018;-81
2022/07/13 04:17:48;;;;;;;9.82;7.07;;;19.60;1.00;;;;;;5024937;28;20426;-82
2022/07/13 04:20:13;;;;;;;9.10;7.15;;;19.60;1.00;;;;;;5022066;28;20054;-82
2022/07/13 04:22:39;;;;;;;9.98;7.60;;;19.60;1.00;;;;;;5029069;28;20444;-81
2022/07/13 04:25:05;;;;;;;10.23;7.38;;;19.60;1.00;;;;;;5029022;28;20567;-81
2022/07/13 04:27:30;;;;;;;11.80;8.30;;;19.60;1.00;;;;;;5017008;28;20018;-82
2022/07/13 04:29:56;;;;;;;10.60;8.15;;;19.50;1.00;;;;;;5026792;28;20376;-82
2022/07/13 04:32:21;;;;;;;10.95;8.55;;;19.80;1.00;;;;;;5019986;28;20434;-81
2022/07/13 04:34:47;;;;;;;7.18;6.32;;;19.50;1.00;;;;;;5027702;28;20034;-82
2022/07/13 04:37:13;;;;;;;10.43;8.00;;;19.60;1.00;;;;;;5035262;28;20493;-81
2022/07/13 04:39:41;;;;;;;12.07;8.48;;;19.70;1.00;;;;;;5033594;28;20084;-81
2022/07/13 04:42:08;;;;;;;10.82;8.10;;;19.70;1.00;;;;;;5020255;28;20037;-81
2022/07/13 04:44:33;;;;;;;9.30;6.63;;;19.60;1.00;;;;;;5015174;28;20030;-81
2022/07/13 04:46:59;;;;;;;10.23;6.68;;;19.80;1.00;;;;;;5015743;28;20033;-81
2022/07/13 04:49:25;;;;;;;10.70;6.60;;;19.90;1.00;;;;;;5035126;28;20075;-81
2022/07/13 04:51:50;;;;;;;8.90;7.32;;;19.90;1.00;;;;;;5034776;28;20074;-81
2022/07/13 04:54:17;;;;;;;11.93;7.20;;;20.00;1.00;;;;;;5034914;28;20031;-81
2022/07/13 04:56:45;;;;;;;10.25;7.38;;;19.90;1.00;;;;;;5035196;28;20025;-81
2022/07/13 04:59:11;;;;;;;15.40;8.27;;;19.90;1.00;;;;;;5041790;28;20421;-83
2022/07/13 05:01:36;;;;;;;12.25;8.77;;;20.00;1.00;;;;;;5019907;28;20041;-81
2022/07/13 05:04:03;;;;;;;11.60;8.52;;;20.00;1.00;;;;;;5019955;28;20038;-82
2022/07/13 05:06:28;;;;;;;14.32;8.75;;;20.10;1.00;;;;;;5035887;28;20089;-82
2022/07/13 05:08:54;;;;;;;12.60;8.27;;;20.10;1.00;;;;;;5026198;28;20037;-82
2022/07/13 05:11:20;;;;;;;14.45;8.60;;;20.10;1.00;;;;;;5028738;28;20026;-82
2022/07/13 05:13:45;;;;;;;9.90;7.13;;;20.20;1.00;;;;;;5034694;28;20029;-82
2022/07/13 05:16:11;;;;;;;10.23;7.00;;;20.30;1.00;;;;;;5028356;28;20026;-81
2022/07/13 05:18:37;;;;;;;10.02;7.85;;;20.40;1.00;;;;;;5022698;28;20022;-82
2022/07/13 05:21:02;;;;;;;9.70;8.05;;;20.70;1.00;;;;;;5029002;28;20057;-82
2022/07/13 05:23:29;;;;;;;10.70;7.15;;;20.80;1.00;;;;;;5030917;28;20041;-82
2022/07/13 05:25:55;;;;;;;11.25;7.30;;;20.90;1.00;;;;;;5047452;28;20021;-81
2022/07/13 05:28:21;;;;;;;9.43;7.15;;;21.20;1.00;;;;;;5019562;28;20030;-82
2022/07/13 05:30:50;;;;;;;8.10;6.07;;;21.50;1.00;;;;;;5034022;28;20030;-83
2022/07/13 05:33:18;;;;;;;9.10;7.25;;;21.70;1.00;;;;;;5019443;28;20052;-82
2022/07/13 05:35:44;;;;;;;9.43;6.70;;;21.90;1.00;;;;;;5023180;28;20029;-79
2022/07/13 05:38:09;;;;;;;10.13;7.28;;;22.00;1.00;;;;;;5025661;28;20029;-79
2022/07/13 05:40:35;;;;;;;7.78;6.38;;;22.20;1.00;;;;;;5014606;28;20038;-80
2022/07/13 05:43:00;;;;;;;8.70;6.90;;;22.50;1.00;;;;;;5014817;28;20026;-80
2022/07/13 05:45:26;;;;;;;10.25;6.63;;;24.40;99.90;;;;;;5013564;28;20025;-80
2022/07/13 05:47:58;;;;;;;8.88;7.05;;;28.20;99.90;;;;;;5014674;28;20025;-79
2022/07/13 05:50:24;;;;;;;6.35;5.45;;;31.00;99.90;;;;;;4998873;28;20033;-82
2022/07/13 05:52:50;;;;;;;8.68;6.18;;;32.40;99.90;;;;;;4998436;28;20026;-82
2022/07/13 05:55:17;;;;;;;8.23;5.85;;;33.30;99.90;;;;;;5014690;28;20030;-82
2022/07/13 05:57:44;;;;;;;7.40;6.05;;;34.00;99.90;;;;;;5016370;28;20068;-82
2022/07/13 06:00:14;;;;;;;12.25;6.32;;;34.90;99.90;;;;;;5029503;28;20108;-82
2022/07/13 06:02:42;;;;;;;7.93;5.93;;;35.80;99.90;;;;;;5036384;28;20028;-82
2022/07/13 06:05:08;;;;;;;10.13;6.13;;;36.70;99.90;;;;;;5031246;28;20028;-82
2022/07/13 06:07:33;;;;;;;7.32;5.50;;;37.00;99.90;;;;;;5031272;28;20029;-81
2022/07/13 06:10:01;;;;;;;9.15;5.95;;;38.00;99.90;;;;;;5032167;28;20014;-81
2022/07/13 06:12:27;;;;;;;9.18;6.30;;;38.60;99.90;;;;;;5016867;28;20071;-82
2022/07/13 06:14:53;;;;;;;7.60;6.07;;;38.50;99.90;;;;;;5017742;28;20030;-81
2022/07/13 06:17:20;;;;;;;8.75;6.22;;;38.80;99.90;;;;;;5030760;28;20030;-81
2022/07/13 06:19:46;;;;;;;7.47;6.10;;;39.80;99.90;;;;;;5028688;28;20033;-82
2022/07/13 06:22:12;;;;;;;7.80;5.90;;;39.90;99.90;;;;;;5038083;28;20025;-82
2022/07/13 06:24:38;;;;;;;8.43;6.40;;;40.60;99.90;;;;;;5026170;28;20112;-81
2022/07/13 06:27:03;;;;;;;10.20;6.63;;;40.50;99.90;;;;;;5034410;28;20624;-81
2022/07/13 06:29:29;;;;;;;8.38;6.20;;;41.10;99.90;;;;;;5033443;28;20029;-81
2022/07/13 06:31:54;;;;;;;8.05;5.88;;;41.20;99.90;;;;;;5029093;28;20103;-81
2022/07/13 06:34:20;;;;;;;7.28;6.57;;;42.80;99.90;;;;;;5034516;28;20030;-81
2022/07/13 06:36:50;;;;;;;8.20;5.97;;;43.10;99.90;;;;;;5026907;28;20109;-82
2022/07/13 06:39:15;;;;;;;9.68;6.35;;;43.60;99.90;;;;;;5014277;28;20141;-82
2022/07/13 06:41:41;;;;;;;9.15;6.07;;;43.80;99.90;;;;;;5014612;28;20065;-82
2022/07/13 06:44:06;;;;;;;7.45;6.75;;;43.90;99.90;;;;;;5014623;28;20026;-82
2022/07/13 06:46:33;;;;;;;7.70;5.82;;;44.20;99.90;;;;;;5014430;28;20053;-81
2022/07/13 06:48:58;;;;;;;7.10;5.72;;;44.30;99.90;;;;;;5013093;28;20026;-80
2022/07/13 06:51:24;;;;;;;7.80;5.97;;;44.40;99.90;;;;;;5015650;28;20060;-82
2022/07/13 06:53:50;;;;;;;8.38;6.60;;;44.80;99.90;;;;;;5027775;28;20079;-82
2022/07/13 06:56:16;;;;;;;8.40;6.15;;;45.30;99.90;;;;;;5036101;28;20075;-81
2022/07/13 06:58:41;;;;;;;7.63;6.25;;;45.60;99.90;;;;;;5033543;28;20037;-82
2022/07/13 07:01:07;;;;;;;8.05;5.93;;;45.70;99.90;;;;;;5032801;28;20022;-81
2022/07/13 07:03:33;;;;;;;8.82;6.55;;;45.90;99.90;;;;;;5033113;28;20029;-80
2022/07/13 07:05:58;;;;;;;7.50;5.47;;;46.10;99.90;;;;;;5033273;28;20056;-80
2022/07/13 07:08:24;;;;;;;6.15;4.57;;;47.30;99.90;;;;;;5033147;28;20022;-81
2022/07/13 07:10:50;;;;;;;6.50;5.05;;;46.60;99.90;;;;;;5025407;28;20520;-80
2022/07/13 07:13:15;;;;;;;6.55;4.53;;;45.60;99.90;;;;;;5016444;28;20358;-80
2022/07/13 07:15:41;;;;;;;6.55;4.60;;;45.40;99.90;;;;;;5019304;28;20085;-81
2022/07/13 07:18:07;;;;;;;4.97;4.05;;;46.20;99.90;;;;;;5016672;28;20028;-81
2022/07/13 07:20:33;;;;;;;4.90;3.80;;;46.80;99.90;;;;;;5016710;28;20034;-80
2022/07/13 07:22:59;;;;;;;6.43;4.70;;;47.40;99.90;;;;;;5016774;28;20496;-80
2022/07/13 07:25:25;;;;;;;5.93;5.05;;;46.50;99.90;;;;;;5016364;28;20494;-81
2022/07/13 07:27:51;;;;;;;7.07;4.00;;;46.80;99.90;;;;;;5016669;28;20026;-81
2022/07/13 07:30:16;;;;;;;5.22;3.30;;;47.40;99.90;;;;;;5016526;28;20026;-81
2022/07/13 07:32:42;;;;;;;4.72;3.88;;;46.20;99.90;;;;;;5016673;28;20137;-80
2022/07/13 07:35:10;;;;;;;4.72;3.72;;;46.00;99.90;;;;;;5015425;28;20026;-81
2022/07/13 07:37:37;;;;;;;6.00;4.00;;;46.50;99.90;;;;;;5016327;28;20060;-81
2022/07/13 07:40:03;;;;;;;5.68;3.38;;;47.10;99.90;;;;;;5016434;28;20134;-81
2022/07/13 07:42:29;;;;;;;4.70;4.30;;;47.40;99.90;;;;;;5016554;28;20109;-80
2022/07/13 07:44:56;;;;;;;4.25;3.50;;;46.90;99.90;;;;;;5016453;28;20048;-80
2022/07/13 07:47:24;;;;;;;5.18;3.85;;;46.00;99.90;;;;;;5016811;28;20405;-80
2022/07/13 07:49:51;;;;;;;6.45;4.28;;;46.00;99.90;;;;;;5016936;28;20018;-80
2022/07/13 07:52:17;;;;;;;5.25;4.70;;;46.90;99.90;;;;;;5016320;28;20041;-80
2022/07/13 07:54:42;;;;;;;6.47;4.80;;;47.10;99.90;;;;;;5016536;28;20021;-84
2022/07/13 07:57:08;;;;;;;5.72;4.20;;;46.80;99.90;;;;;;5016606;28;20018;-84
2022/07/13 07:59:35;;;;;;;5.47;4.80;;;47.40;99.90;;;;;;5016288;28;20026;-84
2022/07/13 08:02:00;;;;;;;7.82;3.88;;;47.50;99.90;;;;;;5016262;28;20088;-84
2022/07/13 08:04:26;;;;;;;6.00;3.83;;;47.10;99.90;;;;;;5016377;28;20061;-83
2022/07/13 08:06:52;;;;;;;5.45;3.70;;;46.60;99.90;;;;;;5016268;28;20033;-84
2022/07/13 08:09:17;;;;;;;4.85;3.70;;;47.20;99.90;;;;;;5016168;28;20454;-84
2022/07/13 08:11:43;;;;;;;4.85;3.83;;;47.90;99.90;;;;;;5016116;28;20030;-84
2022/07/13 08:14:09;;;;;;;4.90;3.70;;;47.50;99.90;;;;;;5016295;28;20028;-83
2022/07/13 08:16:34;;;;;;;7.05;3.90;;;47.80;99.90;;;;;;5015861;28;20113;-84
2022/07/13 08:19:00;;;;;;;5.18;3.60;;;47.40;99.90;;;;;;5016084;28;20076;-84
2022/07/13 08:21:26;;;;;;;6.53;3.28;;;47.70;99.90;;;;;;5016176;28;20045;-84
2022/07/13 08:23:51;;;;;;;4.63;3.67;;;47.90;99.90;;;;;;5015861;28;20080;-83
2022/07/13 08:26:25;;;;;;;4.30;3.20;;;47.90;99.90;;;;;;5015625;28;20366;-83
2022/07/13 08:28:51;;;;;;;4.57;4.05;;;47.40;99.90;;;;;;5015767;28;20022;-84
2022/07/13 08:31:20;;;;;;;5.72;3.90;;;47.70;99.90;;;;;;5015566;28;20106;-84
2022/07/13 08:39:13;;;;;;;5.70;5.20;;;46.70;99.90;;;;;;4995568;28;20052;-83
2022/07/13 08:41:40;;;;;;;4.75;3.78;;;46.90;99.90;;;;;;4995723;28;20441;-84
2022/07/13 08:44:06;;;;;;;5.45;3.60;;;46.00;99.90;;;;;;4995806;28;20036;-83
2022/07/13 08:46:32;;;;;;;5.80;3.92;;;45.90;99.90;;;;;;4995789;28;20018;-83
2022/07/13 08:48:58;;;;;;;3.58;3.20;;;46.60;99.90;;;;;;4995771;28;20037;-83
2022/07/13 08:51:25;;;;;;;3.97;3.28;;;46.40;99.90;;;;;;5014356;28;20022;-80
2022/07/13 08:53:54;;;;;;;7.10;3.88;;;45.30;99.90;;;;;;5014925;28;20149;-79
2022/07/13 08:56:20;;;;;;;4.70;3.80;;;44.50;99.90;;;;;;5014746;28;20370;-80
2022/07/13 08:58:46;;;;;;;5.93;4.10;;;43.90;99.90;;;;;;5014784;28;20079;-80
2022/07/13 09:01:11;;;;;;;5.43;4.10;;;44.60;99.90;;;;;;5014638;28;20108;-80
2022/07/13 09:03:38;;;;;;;4.07;3.67;;;44.80;99.90;;;;;;5014641;28;20037;-79
2022/07/13 09:06:04;;;;;;;6.72;4.47;;;45.40;99.90;;;;;;5014592;28;20028;-80
2022/07/13 09:08:30;;;;;;;5.03;4.45;;;46.30;99.90;;;;;;5017194;28;20022;-81
2022/07/13 09:10:57;;;;;;;6.75;4.95;;;43.60;99.90;;;;;;5025684;28;20080;-80
2022/07/13 09:13:46;;;;;;;7.45;4.65;;;42.90;99.90;;;;;;5029108;28;20026;-80
2022/07/13 09:16:23;;;;;;;8.77;5.60;;;42.60;99.90;;;;;;5024497;28;20096;-80
2022/07/13 09:18:59;;;;;;;7.90;5.03;;;41.80;99.90;;;;;;5028013;28;20028;-81
2022/07/13 09:21:27;;;;;;;5.50;4.63;;;42.90;99.90;;;;;;5024956;28;20079;-80
2022/07/13 09:23:57;;;;;;;4.75;3.55;;;42.70;99.90;;;;;;5033500;28;20025;-80
2022/07/13 09:26:23;;;;;;;5.75;3.97;;;42.10;99.90;;;;;;5033464;28;20523;-80
2022/07/13 09:28:50;;;;;;;5.10;4.35;;;41.80;99.90;;;;;;5033791;28;20025;-80
2022/07/13 09:31:17;;;;;;;7.50;5.30;;;41.80;99.90;;;;;;5033593;28;20083;-78
2022/07/13 09:33:46;;;;;;;6.38;4.32;;;41.90;99.90;;;;;;5033237;28;20091;-80
2022/07/13 09:36:16;;;;;;;6.90;4.85;;;40.90;99.90;;;;;;5033185;28;20021;-80
2022/07/13 09:38:47;;;;;;;6.85;5.22;;;40.40;99.90;;;;;;5032813;28;20042;-80
2022/07/13 09:41:18;;;;;;;4.80;4.13;;;40.20;99.90;;;;;;5033242;28;20030;-80
2022/07/13 09:46:58;;;;;;;3.83;3.38;;;41.70;99.90;;;;;;4993695;28;20077;-80
2022/07/13 09:49:32;;;;;;;4.95;4.28;;;39.50;99.90;;;;;;4994061;28;20121;-80
2022/07/13 09:51:59;;;;;;;4.80;4.05;;;40.20;99.90;;;;;;5003718;28;20022;-80
2022/07/13 09:54:30;;;;;;;7.95;4.25;;;40.90;99.90;;;;;;5013588;28;20026;-80
2022/07/13 09:56:59;;;;;;;5.30;4.07;;;40.10;99.90;;;;;;5011946;28;20026;-80
2022/07/13 09:59:24;;;;;;;;;;;40.90;99.90;;;;;;5013651;28;20025;-80
2022/07/13 10:01:51;;;;;;;3.33;2.72;;;40.90;99.90;;;;;;5012899;28;19905;-80
2022/07/13 10:04:17;;;;;;;4.25;3.75;;;41.10;99.90;;;;;;5012782;28;20029;-80
2022/07/13 10:06:43;;;;;;;4.72;4.20;;;40.20;99.90;;;;;;5012548;28;20057;-80
2022/07/13 10:09:09;;;;;;;4.38;3.33;;;39.90;99.90;;;;;;5012811;28;20124;-80
2022/07/13 10:11:34;;;;;;;3.22;2.45;;;41.20;99.90;;;;;;5012742;28;20026;-80
2022/07/13 10:14:00;;;;;;;4.15;3.00;;;40.60;99.90;;;;;;5012420;28;20115;-79
2022/07/13 10:16:30;;;;;;;2.95;2.58;;;40.60;99.90;;;;;;5012683;28;20105;-80
2022/07/13 10:19:04;;;;;;;3.38;2.25;;;40.60;99.90;;;;;;5012548;28;20044;-80
2022/07/13 10:21:51;;;;;;;3.17;2.30;;;41.60;99.90;;;;;;5013013;28;20470;-80
2022/07/13 10:24:17;;;;;;;3.15;1.85;;;40.40;99.90;;;;;;4993318;28;20026;-80
2022/07/13 10:26:47;;;;;;;4.10;2.05;;;40.60;99.90;;;;;;4994170;28;20598;-81
2022/07/13 10:29:14;;;;;;;3.97;2.42;;;40.30;99.90;;;;;;4993788;28;20077;-80
2022/07/13 10:31:40;;;;;;;2.25;2.05;;;39.70;99.90;;;;;;4993579;28;20011;-80
2022/07/13 10:34:07;;;;;;;3.05;2.05;;;39.20;99.90;;;;;;4993527;28;20065;-80
2022/07/13 10:36:51;;;;;;;3.08;2.17;;;38.00;99.90;;;;;;4991703;28;20080;-80
2022/07/13 10:39:24;;;;;;;4.20;2.47;;;38.20;99.90;;;;;;4993529;28;20390;-81
2022/07/13 10:42:05;;;;;;;3.83;1.67;;;37.50;99.90;;;;;;4994679;28;20053;-81
2022/07/13 10:44:41;;;;;;;3.53;2.22;;;35.50;99.90;;;;;;4993722;28;20042;-80
2022/07/13 10:47:09;;;;;;;2.30;2.05;;;35.40;99.90;;;;;;4996763;28;20407;-80
2022/07/13 10:49:38;;;;;;;2.58;1.83;;;36.90;99.90;;;;;;4997271;28;20049;-79
2022/07/13 10:52:22;;;;;;;4.18;2.55;;;37.00;99.90;;;;;;4997314;28;20025;-79
2022/07/13 10:55:06;;;;;;;3.10;2.40;;;36.80;99.90;;;;;;4996907;28;20041;-80
2022/07/13 10:57:33;;;;;;;3.30;2.50;;;37.20;99.90;;;;;;4997040;28;20034;-80
2022/07/13 11:00:18;;;;;;;2.85;2.10;;;38.40;99.90;;;;;;5003919;28;20113;-81
2022/07/13 11:02:55;;;;;;;1.70;1.58;;;39.70;99.90;;;;;;5016694;28;20022;-79
2022/07/13 11:05:24;;;;;;;2.88;2.05;;;35.20;99.90;;;;;;5016335;28;20492;-79
2022/07/13 11:07:52;;;;;;;3.80;1.70;;;33.40;99.90;;;;;;5016722;28;20025;-79
2022/07/13 11:10:23;;;;;;;2.60;2.00;;;33.50;99.90;;;;;;5019330;28;20120;-79
2022/07/13 11:13:09;;;;;;;2.08;1.90;;;33.90;99.90;;;;;;5036213;28;20024;-79
2022/07/13 11:15:52;;;;;;;2.20;2.00;;;33.60;99.90;;;;;;5035865;28;20160;-79
2022/07/13 11:18:21;;;;;;;3.75;2.10;;;31.70;99.90;;;;;;5035801;28;20045;-79
2022/07/13 11:21:18;;;;;;;3.30;2.07;;;30.90;99.90;;;;;;5035664;28;20020;-79
2022/07/13 11:26:47;;;;;;;2.40;2.05;;;29.20;99.90;;;;;;5035471;28;20369;-78
2022/07/13 11:29:27;;;;;;;3.03;2.42;;;29.60;99.90;;;;;;5035602;28;20025;-79
2022/07/13 11:31:57;;;;;;;4.20;2.63;;;29.40;99.90;;;;;;5035650;28;20085;-78
2022/07/13 11:34:23;;;;;;;2.78;1.95;;;28.80;99.90;;;;;;5035408;28;20021;-79
2022/07/13 11:36:49;;;;;;;5.93;2.55;;;29.00;99.90;;;;;;5035143;28;20032;-78
2022/07/13 11:39:31;;;;;;;2.47;2.15;;;29.20;99.90;;;;;;5034587;28;20049;-78
2022/07/13 11:41:59;;;;;;;3.10;2.53;;;28.40;99.90;;;;;;5035195;28;20133;-78
2022/07/13 11:44:29;;;;;;;6.05;2.85;;;27.90;99.90;;;;;;5035019;28;20618;-79
2022/07/13 11:46:57;;;;;;;2.72;1.92;;;28.50;99.90;;;;;;5035031;28;20072;-79
2022/07/13 11:49:24;;;;;;;5.38;3.00;;;27.80;99.90;;;;;;5018457;28;20022;-79
2022/07/13 11:51:51;;;;;;;2.45;2.22;;;27.50;99.90;;;;;;5015160;28;20033;-79
2022/07/13 11:54:18;;;;;;;5.72;2.47;;;28.30;99.90;;;;;;5015475;28;20025;-79
2022/07/13 11:56:54;;;;;;;4.15;2.22;;;27.80;99.90;;;;;;5014965;28;20056;-78
2022/07/13 11:59:42;;;;;;;3.33;2.20;;;27.60;99.90;;;;;;5014622;28;20508;-79
2022/07/13 12:02:11;;;;;;;3.63;2.40;;;27.30;99.90;;;;;;5015266;28;20101;-79
2022/07/13 12:04:41;;;;;;;1.90;1.77;;;27.50;99.90;;;;;;5015346;28;20034;-78
2022/07/13 12:07:18;;;;;;;3.85;2.08;;;27.50;99.90;;;;;;5015102;28;20065;-78
2022/07/13 12:09:58;;;;;;;4.00;2.08;;;27.40;99.90;;;;;;5027215;28;20093;-78
2022/07/13 12:12:30;;;;;;;4.55;2.15;;;27.00;99.90;;;;;;5008122;28;20444;-78
2022/07/13 12:14:57;;;;;;;8.48;2.90;;;26.90;99.90;;;;;;5034486;28;20108;-78
2022/07/13 12:17:27;;;;;;;4.68;2.92;;;27.00;99.90;;;;;;5020993;28;20026;-81
2022/07/13 12:20:07;;;;;;;6.50;3.10;;;26.20;99.90;;;;;;5021137;28;20058;-81
2022/07/13 12:22:33;;;;;;;6.22;3.63;;;26.00;99.90;;;;;;4994729;28;20039;-79
2022/07/13 12:24:58;;;;;;;5.53;3.30;;;26.20;99.90;;;;;;4994492;28;20037;-78
2022/07/13 12:27:26;;;;;;;6.90;3.15;;;25.80;99.90;;;;;;4994825;28;20057;-78
2022/07/13 12:30:05;;;;;;;5.57;2.83;;;25.90;99.90;;;;;;4995485;28;20022;-79
2022/07/13 12:32:31;;;;;;;6.38;3.28;;;26.10;99.90;;;;;;4996915;28;20045;-78
2022/07/13 12:34:56;;;;;;;4.65;2.35;;;26.00;99.90;;;;;;5014209;28;20034;-78
2022/07/13 12:37:37;;;;;;;4.00;1.92;;;26.00;99.90;;;;;;5014202;28;20026;-78
2022/07/13 12:40:04;;;;;;;4.85;2.50;;;25.50;99.90;;;;;;5014260;28;20046;-76
2022/07/13 12:42:32;;;;;;;5.15;2.33;;;25.80;99.90;;;;;;5014927;28;20026;-79
2022/07/13 12:44:58;;;;;;;2.20;2.00;;;25.70;99.90;;;;;;5014444;28;20026;-79
2022/07/13 12:47:26;;;;;;;3.80;2.35;;;25.70;99.90;;;;;;5014141;28;20052;-79
2022/07/13 12:49:53;;;;;;;2.53;2.00;;;25.60;99.90;;;;;;5014108;28;20055;-78
2022/07/13 12:52:23;;;;;;;2.25;1.63;;;25.50;99.90;;;;;;5013878;28;20025;-78
2022/07/13 12:54:53;;;;;;;4.22;1.48;;;25.20;99.90;;;;;;5013758;28;20026;-78
2022/07/13 12:57:24;;;;;;;4.30;2.03;;;25.50;99.90;;;;;;5014065;28;20049;-78
2022/07/13 13:00:12;;;;;;;6.20;2.30;;;25.30;99.90;;;;;;5013625;28;20025;-78